createdAt,value
2024-02-16T00:00:49.145Z,666.00
2024-02-16T00:01:49.135Z,665.00
2024-02-16T00:02:49.321Z,670.00
2024-02-16T00:03:49.198Z,669.00
2024-02-16T00:04:49.374Z,671.00
2024-02-16T00:05:49.304Z,673.00
2024-02-16T00:06:49.396Z,673.00
2024-02-16T00:07:49.322Z,662.00
2024-02-16T00:08:49.523Z,683.00
2024-02-16T00:09:49.355Z,675.00
2024-02-16T00:10:49.487Z,665.00
2024-02-16T00:11:49.491Z,675.00
2024-02-16T00:12:49.445Z,670.00
2024-02-16T00:13:49.490Z,678.00
2024-02-16T00:14:49.568Z,668.00
2024-02-16T00:15:49.557Z,679.00
2024-02-16T00:16:49.573Z,665.00
2024-02-16T00:17:49.704Z,678.00
2024-02-16T00:18:49.974Z,676.00
2024-02-16T00:19:49.683Z,675.00
2024-02-16T00:20:49.675Z,666.00
2024-02-16T00:21:49.718Z,686.00
2024-02-16T00:22:49.731Z,669.00
2024-02-16T00:23:49.740Z,668.00
2024-02-16T00:24:49.740Z,673.00
2024-02-16T00:25:49.804Z,668.00
2024-02-16T00:26:49.879Z,684.00
2024-02-16T00:27:49.946Z,676.00
2024-02-16T00:28:49.851Z,672.00
2024-02-16T00:29:50.036Z,671.00
2024-02-16T00:30:49.906Z,672.00
2024-02-16T00:31:49.980Z,668.00
2024-02-16T00:32:50.053Z,671.00
2024-02-16T00:33:50.094Z,675.00
2024-02-16T00:34:50.038Z,670.00
2024-02-16T00:35:50.181Z,671.00
2024-02-16T00:36:50.079Z,669.00
2024-02-16T00:37:50.101Z,683.00
2024-02-16T00:38:50.154Z,668.00
2024-02-16T00:39:50.157Z,675.00
2024-02-16T00:40:50.167Z,681.00
2024-02-16T00:41:50.205Z,679.00
2024-02-16T00:42:50.217Z,666.00
2024-02-16T00:43:50.257Z,677.00
2024-02-16T00:44:50.302Z,677.00
2024-02-16T00:45:50.287Z,674.00
2024-02-16T00:46:50.325Z,678.00
2024-02-16T00:47:50.445Z,674.00
2024-02-16T00:48:50.508Z,674.00
2024-02-16T00:49:50.447Z,675.00
2024-02-16T00:50:50.490Z,670.00
2024-02-16T00:51:50.474Z,667.00
2024-02-16T00:52:50.494Z,691.00
2024-02-16T00:53:50.535Z,663.00
2024-02-16T00:54:50.553Z,673.00
2024-02-16T00:55:50.610Z,680.00
2024-02-16T00:56:50.670Z,667.00
2024-02-16T00:57:50.633Z,678.00
2024-02-16T00:58:50.679Z,674.00
2024-02-16T00:59:50.746Z,667.00
2024-02-16T01:00:50.969Z,683.00
2024-02-16T01:01:50.788Z,678.00
2024-02-16T01:02:50.794Z,665.00
2024-02-16T01:03:50.834Z,661.00
2024-02-16T01:04:51.024Z,666.00
2024-02-16T01:05:50.962Z,664.00
2024-02-16T01:06:50.883Z,680.00
2024-02-16T01:07:50.939Z,665.00
2024-02-16T01:08:50.972Z,668.00
2024-02-16T01:09:50.985Z,674.00
2024-02-16T01:10:51.016Z,678.00
2024-02-16T01:11:51.088Z,664.00
2024-02-16T01:12:51.076Z,661.00
2024-02-16T01:13:51.095Z,663.00
2024-02-16T01:14:51.161Z,660.00
2024-02-16T01:15:51.167Z,663.00
2024-02-16T01:16:51.192Z,663.00
2024-02-16T01:17:51.322Z,665.00
2024-02-16T01:18:51.474Z,666.00
2024-02-16T01:19:51.354Z,662.00
2024-02-16T01:20:51.331Z,670.00
2024-02-16T01:21:51.330Z,669.00
2024-02-16T01:22:51.382Z,663.00
2024-02-16T01:23:51.442Z,665.00
2024-02-16T01:24:51.417Z,663.00
2024-02-16T01:25:51.482Z,674.00
2024-02-16T01:26:51.493Z,668.00
2024-02-16T01:27:51.503Z,664.00
2024-02-16T01:28:51.569Z,666.00
2024-02-16T01:29:51.664Z,668.00
2024-02-16T01:30:51.557Z,671.00
2024-02-16T01:31:51.601Z,665.00
2024-02-16T01:32:51.691Z,660.00
2024-02-16T01:33:51.801Z,665.00
2024-02-16T01:34:51.821Z,665.00
2024-02-16T01:35:51.739Z,666.00
2024-02-16T01:36:51.739Z,658.00
2024-02-16T01:37:51.772Z,659.00
2024-02-16T01:38:51.824Z,661.00
2024-02-16T01:39:51.819Z,668.00
2024-02-16T01:40:51.848Z,660.00
2024-02-16T01:41:51.892Z,663.00
2024-02-16T01:42:51.893Z,664.00
2024-02-16T01:43:51.904Z,663.00
2024-02-16T01:44:51.975Z,663.00
2024-02-16T01:45:51.961Z,658.00
2024-02-16T01:46:52.016Z,676.00
2024-02-16T01:47:52.154Z,667.00
2024-02-16T01:48:52.188Z,657.00
2024-02-16T01:49:52.078Z,661.00
2024-02-16T01:50:52.151Z,662.00
2024-02-16T01:51:52.132Z,663.00
2024-02-16T01:52:52.157Z,656.00
2024-02-16T01:53:52.220Z,662.00
2024-02-16T01:54:52.218Z,672.00
2024-02-16T01:55:52.232Z,661.00
2024-02-16T01:56:52.294Z,668.00
2024-02-16T01:57:52.289Z,661.00
2024-02-16T01:58:52.307Z,658.00
2024-02-16T01:59:52.386Z,666.00
2024-02-16T02:00:52.416Z,659.00
2024-02-16T02:01:52.447Z,661.00
2024-02-16T02:02:52.469Z,663.00
2024-02-16T02:03:52.541Z,663.00
2024-02-16T02:04:52.537Z,662.00
2024-02-16T02:05:52.577Z,662.00
2024-02-16T02:06:52.629Z,660.00
2024-02-16T02:07:52.533Z,663.00
2024-02-16T02:08:52.566Z,661.00
2024-02-16T02:09:52.585Z,665.00
2024-02-16T02:10:52.661Z,663.00
2024-02-16T02:11:52.674Z,659.00
2024-02-16T02:12:52.680Z,655.00
2024-02-16T02:13:52.696Z,661.00
2024-02-16T02:14:52.756Z,665.00
2024-02-16T02:15:52.753Z,658.00
2024-02-16T02:16:58.817Z,654.00
2024-02-16T02:17:53.925Z,654.00
2024-02-16T02:18:52.870Z,654.00
2024-02-16T02:19:52.841Z,654.00
2024-02-16T02:20:52.842Z,659.00
2024-02-16T02:21:52.802Z,657.00
2024-02-16T02:22:52.809Z,655.00
2024-02-16T02:23:52.861Z,659.00
2024-02-16T02:24:52.815Z,659.00
2024-02-16T02:25:52.798Z,655.00
2024-02-16T02:26:52.845Z,657.00
2024-02-16T02:27:52.816Z,656.00
2024-02-16T02:28:52.819Z,654.00
2024-02-16T02:29:52.834Z,656.00
2024-02-16T02:30:52.806Z,650.00
2024-02-16T02:31:52.811Z,655.00
2024-02-16T02:32:52.936Z,657.00
2024-02-16T02:33:52.939Z,651.00
2024-02-16T02:34:52.813Z,652.00
2024-02-16T02:35:52.897Z,652.00
2024-02-16T02:36:52.810Z,652.00
2024-02-16T02:37:52.847Z,649.00
2024-02-16T02:38:52.898Z,651.00
2024-02-16T02:39:52.905Z,660.00
2024-02-16T02:40:52.926Z,659.00
2024-02-16T02:41:53.007Z,650.00
2024-02-16T02:42:52.965Z,651.00
2024-02-16T02:43:52.986Z,651.00
2024-02-16T02:44:53.112Z,650.00
2024-02-16T02:45:53.084Z,649.00
2024-02-16T02:46:53.057Z,648.00
2024-02-16T02:47:53.317Z,651.00
2024-02-16T02:48:53.447Z,656.00
2024-02-16T02:49:53.188Z,651.00
2024-02-16T02:50:53.228Z,649.00
2024-02-16T02:51:53.202Z,653.00
2024-02-16T02:52:53.235Z,652.00
2024-02-16T02:53:53.350Z,652.00
2024-02-16T02:54:53.320Z,648.00
2024-02-16T02:55:53.336Z,655.00
2024-02-16T02:56:53.376Z,649.00
2024-02-16T02:57:53.368Z,645.00
2024-02-16T02:58:53.421Z,648.00
2024-02-16T02:59:53.497Z,652.00
2024-02-16T03:00:53.472Z,648.00
2024-02-16T03:01:53.474Z,642.00
2024-02-16T03:02:53.494Z,645.00
2024-02-16T03:03:53.613Z,648.00
2024-02-16T03:04:53.543Z,647.00
2024-02-16T03:05:53.622Z,653.00
2024-02-16T03:06:53.670Z,645.00
2024-02-16T03:07:53.623Z,642.00
2024-02-16T03:08:53.680Z,649.00
2024-02-16T03:09:53.660Z,647.00
2024-02-16T03:10:53.714Z,650.00
2024-02-16T03:11:53.728Z,646.00
2024-02-16T03:12:53.764Z,647.00
2024-02-16T03:13:53.755Z,642.00
2024-02-16T03:14:53.808Z,644.00
2024-02-16T03:15:53.825Z,645.00
2024-02-16T03:16:53.835Z,648.00
2024-02-16T03:17:54.081Z,650.00
2024-02-16T03:18:53.946Z,646.00
2024-02-16T03:19:53.969Z,643.00
2024-02-16T03:20:53.957Z,646.00
2024-02-16T03:21:53.982Z,650.00
2024-02-16T03:22:53.981Z,645.00
2024-02-16T03:23:54.052Z,645.00
2024-02-16T03:24:54.041Z,638.00
2024-02-16T03:25:54.097Z,647.00
2024-02-16T03:26:54.145Z,641.00
2024-02-16T03:27:54.152Z,644.00
2024-02-16T03:28:54.169Z,644.00
2024-02-16T03:29:54.230Z,648.00
2024-02-16T03:30:54.252Z,644.00
2024-02-16T03:31:54.237Z,641.00
2024-02-16T03:32:54.363Z,648.00
2024-02-16T03:33:54.586Z,641.00
2024-02-16T03:34:54.394Z,645.00
2024-02-16T03:35:54.394Z,643.00
2024-02-16T03:36:54.411Z,645.00
2024-02-16T03:37:54.426Z,640.00
2024-02-16T03:38:54.503Z,636.00
2024-02-16T03:39:54.494Z,644.00
2024-02-16T03:40:54.537Z,638.00
2024-02-16T03:41:54.589Z,642.00
2024-02-16T03:42:54.616Z,641.00
2024-02-16T03:43:54.621Z,646.00
2024-02-16T03:44:54.655Z,641.00
2024-02-16T03:45:54.657Z,646.00
2024-02-16T03:46:56.863Z,647.00
2024-02-16T03:47:54.930Z,639.00
2024-02-16T03:48:54.991Z,639.00
2024-02-16T03:49:54.945Z,636.00
2024-02-16T03:50:54.871Z,639.00
2024-02-16T03:51:54.865Z,644.00
2024-02-16T03:52:54.895Z,635.00
2024-02-16T03:53:54.929Z,640.00
2024-02-16T03:54:54.943Z,644.00
2024-02-16T03:55:54.994Z,639.00
2024-02-16T03:56:55.086Z,638.00
2024-02-16T03:57:55.024Z,643.00
2024-02-16T03:58:55.070Z,639.00
2024-02-16T03:59:55.096Z,633.00
2024-02-16T04:00:55.220Z,638.00
2024-02-16T04:01:55.147Z,640.00
2024-02-16T04:02:55.211Z,638.00
2024-02-16T04:03:55.258Z,638.00
2024-02-16T04:04:55.233Z,640.00
2024-02-16T04:05:55.323Z,642.00
2024-02-16T04:06:55.308Z,630.00
2024-02-16T04:07:55.328Z,633.00
2024-02-16T04:08:55.383Z,635.00
2024-02-16T04:09:55.366Z,636.00
2024-02-16T04:10:55.444Z,639.00
2024-02-16T04:11:55.408Z,638.00
2024-02-16T04:12:55.478Z,632.00
2024-02-16T04:13:55.458Z,630.00
2024-02-16T04:14:55.518Z,635.00
2024-02-16T04:15:55.963Z,633.00
2024-02-16T04:16:55.543Z,634.00
2024-02-16T04:17:55.730Z,638.00
2024-02-16T04:18:55.839Z,633.00
2024-02-16T04:19:55.785Z,638.00
2024-02-16T04:20:55.671Z,633.00
2024-02-16T04:21:57.772Z,640.00
2024-02-16T04:22:55.713Z,633.00
2024-02-16T04:23:55.705Z,628.00
2024-02-16T04:24:55.708Z,638.00
2024-02-16T04:25:55.728Z,638.00
2024-02-16T04:26:55.729Z,630.00
2024-02-16T04:27:55.713Z,630.00
2024-02-16T04:28:55.705Z,630.00
2024-02-16T04:29:55.758Z,631.00
2024-02-16T04:30:56.027Z,632.00
2024-02-16T04:31:55.742Z,631.00
2024-02-16T04:32:55.892Z,627.00
2024-02-16T04:33:55.869Z,630.00
2024-02-16T04:34:55.790Z,627.00
2024-02-16T04:35:55.755Z,625.00
2024-02-16T04:36:55.748Z,625.00
2024-02-16T04:37:55.759Z,632.00
2024-02-16T04:38:55.774Z,626.00
2024-02-16T04:39:55.757Z,626.00
2024-02-16T04:40:55.753Z,629.00
2024-02-16T04:41:55.783Z,629.00
2024-02-16T04:42:55.776Z,631.00
2024-02-16T04:43:55.771Z,623.00
2024-02-16T04:44:55.802Z,622.00
2024-02-16T04:45:55.796Z,631.00
2024-02-16T04:46:55.766Z,633.00
2024-02-16T04:48:03.170Z,600.00
2024-02-16T04:49:03.191Z,600.00
2024-02-16T04:50:03.186Z,600.00
2024-02-16T04:51:03.162Z,600.00
2024-02-16T04:52:03.104Z,600.00
2024-02-16T04:53:03.110Z,603.00
2024-02-16T04:54:03.140Z,606.00
2024-02-16T04:55:03.098Z,600.00
2024-02-16T04:56:03.127Z,602.00
2024-02-16T04:57:03.191Z,604.00
2024-02-16T04:58:03.119Z,607.00
2024-02-16T04:59:03.189Z,602.00
2024-02-16T05:00:03.171Z,612.00
2024-02-16T05:01:03.198Z,605.00
2024-02-16T05:02:03.161Z,607.00
2024-02-16T05:03:03.220Z,602.00
2024-02-16T05:04:03.376Z,604.00
2024-02-16T05:05:04.725Z,606.00
2024-02-16T05:06:03.271Z,604.00
2024-02-16T05:07:03.240Z,608.00
2024-02-16T05:08:03.156Z,610.00
2024-02-16T05:09:03.178Z,608.00
2024-02-16T05:10:03.156Z,607.00
2024-02-16T05:11:03.181Z,607.00
2024-02-16T05:12:03.150Z,613.00
2024-02-16T05:13:03.154Z,601.00
2024-02-16T05:14:03.153Z,601.00
2024-02-16T05:15:03.204Z,608.00
2024-02-16T05:16:03.155Z,603.00
2024-02-16T05:17:03.149Z,605.00
2024-02-16T05:18:03.922Z,600.00
2024-02-16T05:19:03.367Z,606.00
2024-02-16T05:20:03.233Z,608.00
2024-02-16T05:21:03.223Z,604.00
2024-02-16T05:22:03.177Z,610.00
2024-02-16T05:23:03.181Z,606.00
2024-02-16T05:24:03.191Z,602.00
2024-02-16T05:25:03.162Z,602.00
2024-02-16T05:26:03.179Z,605.00
2024-02-16T05:27:03.213Z,603.00
2024-02-16T05:28:03.210Z,612.00
2024-02-16T05:29:03.215Z,608.00
2024-02-16T05:30:03.283Z,604.00
2024-02-16T05:31:03.242Z,604.00
2024-02-16T05:32:03.328Z,604.00
2024-02-16T05:33:03.339Z,605.00
2024-02-16T05:34:03.383Z,603.00
2024-02-16T05:35:03.385Z,612.00
2024-02-16T05:36:03.398Z,607.00
2024-02-16T05:37:03.404Z,610.00
2024-02-16T05:38:03.418Z,611.00
2024-02-16T05:39:03.498Z,613.00
2024-02-16T05:40:03.473Z,605.00
2024-02-16T05:41:03.503Z,611.00
2024-02-16T05:42:03.555Z,611.00
2024-02-16T05:43:03.561Z,606.00
2024-02-16T05:44:03.579Z,609.00
2024-02-16T05:45:03.655Z,609.00
2024-02-16T05:46:03.667Z,616.00
2024-02-16T05:47:03.678Z,604.00
2024-02-16T05:48:03.785Z,603.00
2024-02-16T05:49:04.019Z,602.00
2024-02-16T05:50:03.883Z,603.00
2024-02-16T05:51:03.932Z,605.00
2024-02-16T05:52:04.247Z,610.00
2024-02-16T05:53:03.862Z,608.00
2024-02-16T05:54:03.974Z,606.00
2024-02-16T05:55:03.895Z,605.00
2024-02-16T05:56:03.946Z,605.00
2024-02-16T05:57:04.028Z,607.00
2024-02-16T05:58:03.993Z,609.00
2024-02-16T05:59:03.998Z,603.00
2024-02-16T06:00:04.039Z,606.00
2024-02-16T06:01:04.182Z,608.00
2024-02-16T06:02:04.114Z,605.00
2024-02-16T06:03:04.143Z,601.00
2024-02-16T06:04:04.226Z,604.00
2024-02-16T06:05:04.230Z,600.00
2024-02-16T06:06:04.288Z,604.00
2024-02-16T06:07:04.319Z,604.00
2024-02-16T06:08:04.265Z,604.00
2024-02-16T06:09:04.359Z,602.00
2024-02-16T06:10:04.332Z,614.00
2024-02-16T06:11:04.381Z,612.00
2024-02-16T06:12:04.467Z,607.00
2024-02-16T06:13:04.457Z,609.00
2024-02-16T06:14:04.440Z,603.00
2024-02-16T06:15:04.505Z,609.00
2024-02-16T06:16:04.500Z,606.00
2024-02-16T06:17:04.556Z,610.00
2024-02-16T06:18:04.692Z,609.00
2024-02-16T06:19:04.741Z,610.00
2024-02-16T06:20:04.769Z,608.00
2024-02-16T06:21:04.713Z,612.00
2024-02-16T06:22:04.688Z,610.00
2024-02-16T06:23:04.718Z,603.00
2024-02-16T06:24:04.769Z,602.00
2024-02-16T06:25:04.813Z,605.00
2024-02-16T06:26:04.792Z,611.00
2024-02-16T06:27:04.816Z,608.00
2024-02-16T06:28:04.822Z,611.00
2024-02-16T06:29:04.836Z,604.00
2024-02-16T06:30:04.901Z,611.00
2024-02-16T06:31:04.928Z,607.00
2024-02-16T06:32:04.960Z,608.00
2024-02-16T06:33:05.037Z,606.00
2024-02-16T06:34:05.089Z,609.00
2024-02-16T06:35:05.145Z,603.00
2024-02-16T06:36:05.098Z,607.00
2024-02-16T06:37:05.018Z,608.00
2024-02-16T06:38:05.064Z,606.00
2024-02-16T06:39:05.117Z,605.00
2024-02-16T06:40:05.093Z,606.00
2024-02-16T06:41:05.141Z,602.00
2024-02-16T06:42:05.169Z,602.00
2024-02-16T06:43:05.178Z,607.00
2024-02-16T06:44:05.202Z,604.00
2024-02-16T06:45:05.270Z,605.00
2024-02-16T06:46:05.242Z,604.00
2024-02-16T06:47:05.252Z,601.00
2024-02-16T06:48:05.371Z,607.00
2024-02-16T06:49:05.343Z,609.00
2024-02-16T06:50:05.389Z,608.00
2024-02-16T06:51:07.152Z,602.00
2024-02-16T06:52:05.404Z,604.00
2024-02-16T06:53:05.382Z,605.00
2024-02-16T06:54:05.423Z,603.00
2024-02-16T06:55:05.388Z,604.00
2024-02-16T06:56:05.396Z,609.00
2024-02-16T06:57:05.437Z,602.00
2024-02-16T06:58:05.394Z,610.00
2024-02-16T06:59:05.433Z,606.00
2024-02-16T07:00:05.495Z,604.00
2024-02-16T07:01:05.492Z,607.00
2024-02-16T07:02:05.390Z,604.00
2024-02-16T07:03:05.461Z,607.00
2024-02-16T07:04:05.509Z,608.00
2024-02-16T07:05:05.483Z,606.00
2024-02-16T07:06:05.480Z,601.00
2024-02-16T07:07:05.486Z,607.00
2024-02-16T07:08:05.413Z,605.00
2024-02-16T07:09:05.456Z,611.00
2024-02-16T07:10:05.411Z,607.00
2024-02-16T07:11:05.463Z,604.00
2024-02-16T07:12:05.439Z,605.00
2024-02-16T07:13:05.455Z,604.00
2024-02-16T07:14:05.454Z,602.00
2024-02-16T07:15:05.442Z,605.00
2024-02-16T07:16:05.450Z,602.00
2024-02-16T07:17:05.436Z,603.00
2024-02-16T07:18:05.647Z,604.00
2024-02-16T07:19:05.487Z,604.00
2024-02-16T07:20:05.534Z,603.00
2024-02-16T07:21:05.465Z,608.00
2024-02-16T07:22:05.453Z,605.00
2024-02-16T07:23:05.505Z,604.00
2024-02-16T07:24:05.479Z,603.00
2024-02-16T07:25:05.423Z,604.00
2024-02-16T07:26:07.456Z,605.00
2024-02-16T07:27:05.636Z,605.00
2024-02-16T07:28:05.592Z,605.00
2024-02-16T07:29:05.665Z,603.00
2024-02-16T07:30:05.770Z,603.00
2024-02-16T07:31:05.810Z,602.00
2024-02-16T07:32:05.781Z,606.00
2024-02-16T07:33:05.851Z,607.00
2024-02-16T07:34:05.929Z,602.00
2024-02-16T07:35:05.844Z,601.00
2024-02-16T07:36:05.826Z,609.00
2024-02-16T07:37:05.846Z,605.00
2024-02-16T07:38:05.867Z,615.00
2024-02-16T07:39:06.021Z,604.00
2024-02-16T07:40:05.902Z,612.00
2024-02-16T07:41:08.367Z,604.00
2024-02-16T07:42:05.981Z,608.00
2024-02-16T07:43:05.954Z,607.00
2024-02-16T07:44:05.927Z,608.00
2024-02-16T07:45:05.962Z,607.00
2024-02-16T07:46:06.278Z,610.00
2024-02-16T07:47:05.935Z,609.00
2024-02-16T07:48:06.093Z,612.00
2024-02-16T07:49:06.154Z,605.00
2024-02-16T07:50:05.981Z,607.00
2024-02-16T07:51:06.051Z,611.00
2024-02-16T07:52:05.977Z,612.00
2024-02-16T07:53:05.977Z,612.00
2024-02-16T07:54:06.009Z,614.00
2024-02-16T07:55:05.980Z,612.00
2024-02-16T07:56:05.993Z,612.00
2024-02-16T07:57:05.976Z,620.00
2024-02-16T07:58:05.999Z,614.00
2024-02-16T07:59:05.961Z,611.00
2024-02-16T08:00:05.997Z,615.00
2024-02-16T08:01:06.021Z,612.00
2024-02-16T08:02:05.968Z,617.00
2024-02-16T08:03:05.993Z,612.00
2024-02-16T08:04:06.884Z,619.00
2024-02-16T08:05:06.034Z,624.00
2024-02-16T08:06:06.104Z,617.00
2024-02-16T08:07:06.100Z,618.00
2024-02-16T08:08:05.994Z,617.00
2024-02-16T08:09:05.999Z,620.00
2024-02-16T08:10:05.994Z,624.00
2024-02-16T08:11:06.016Z,619.00
2024-02-16T08:12:06.088Z,627.00
2024-02-16T08:13:06.003Z,624.00
2024-02-16T08:14:05.978Z,621.00
2024-02-16T08:15:05.987Z,621.00
2024-02-16T08:16:06.005Z,626.00
2024-02-16T08:17:12.169Z,626.00
2024-02-16T08:18:07.194Z,626.00
2024-02-16T08:19:06.079Z,626.00
2024-02-16T08:20:07.625Z,628.00
2024-02-16T08:21:06.042Z,632.00
2024-02-16T08:22:06.017Z,633.00
2024-02-16T08:23:05.983Z,632.00
2024-02-16T08:24:06.035Z,633.00
2024-02-16T08:25:06.018Z,637.00
2024-02-16T08:26:06.006Z,643.00
2024-02-16T08:27:05.995Z,636.00
2024-02-16T08:28:06.000Z,635.00
2024-02-16T08:29:05.994Z,638.00
2024-02-16T08:30:06.122Z,641.00
2024-02-16T08:31:06.008Z,637.00
2024-02-16T08:32:06.027Z,645.00
2024-02-16T08:33:06.061Z,639.00
2024-02-16T08:34:07.530Z,646.00
2024-02-16T08:35:06.139Z,645.00
2024-02-16T08:36:06.043Z,649.00
2024-02-16T08:37:06.112Z,643.00
2024-02-16T08:38:06.068Z,649.00
2024-02-16T08:39:06.036Z,649.00
2024-02-16T08:40:06.022Z,654.00
2024-02-16T08:41:06.013Z,651.00
2024-02-16T08:42:06.127Z,650.00
2024-02-16T08:43:06.030Z,652.00
2024-02-16T08:44:06.053Z,652.00
2024-02-16T08:45:06.127Z,653.00
2024-02-16T08:46:06.050Z,656.00
2024-02-16T08:47:06.020Z,659.00
2024-02-16T08:48:06.120Z,655.00
2024-02-16T08:49:06.173Z,658.00
2024-02-16T08:50:06.118Z,656.00
2024-02-16T08:51:06.045Z,658.00
2024-02-16T08:52:06.038Z,660.00
2024-02-16T08:53:06.037Z,660.00
2024-02-16T08:54:08.472Z,658.00
2024-02-16T08:55:06.048Z,658.00
2024-02-16T08:56:06.040Z,659.00
2024-02-16T08:57:06.073Z,660.00
2024-02-16T08:58:06.040Z,664.00
2024-02-16T08:59:06.054Z,662.00
2024-02-16T09:00:06.121Z,667.00
2024-02-16T09:01:06.130Z,672.00
2024-02-16T09:02:06.093Z,670.00
2024-02-16T09:03:06.098Z,674.00
2024-02-16T09:04:06.217Z,672.00
2024-02-16T09:05:06.139Z,667.00
2024-02-16T09:06:06.184Z,663.00
2024-02-16T09:07:06.229Z,675.00
2024-02-16T09:08:06.083Z,672.00
2024-02-16T09:09:06.101Z,680.00
2024-02-16T09:10:06.058Z,676.00
2024-02-16T09:11:06.104Z,691.00
2024-02-16T09:12:06.084Z,679.00
2024-02-16T09:13:06.061Z,683.00
2024-02-16T09:14:06.068Z,681.00
2024-02-16T09:15:06.079Z,684.00
2024-02-16T09:16:06.110Z,685.00
2024-02-16T09:17:06.078Z,681.00
2024-02-16T09:18:06.199Z,690.00
2024-02-16T09:19:06.313Z,689.00
2024-02-16T09:20:06.168Z,687.00
2024-02-16T09:21:06.104Z,692.00
2024-02-16T09:22:06.112Z,689.00
2024-02-16T09:23:06.084Z,687.00
2024-02-16T09:24:06.134Z,690.00
2024-02-16T09:25:06.118Z,692.00
2024-02-16T09:26:06.130Z,684.00
2024-02-16T09:27:06.235Z,680.00
2024-02-16T09:28:07.805Z,687.00
2024-02-16T09:29:06.121Z,688.00
2024-02-16T09:30:06.157Z,700.00
2024-02-16T09:31:06.119Z,691.00
2024-02-16T09:32:06.101Z,691.00
2024-02-16T09:33:06.218Z,687.00
2024-02-16T09:34:06.228Z,695.00
2024-02-16T09:35:06.199Z,687.00
2024-02-16T09:36:06.226Z,689.00
2024-02-16T09:37:06.128Z,693.00
2024-02-16T09:38:06.131Z,700.00
2024-02-16T09:39:06.181Z,701.00
2024-02-16T09:40:06.156Z,690.00
2024-02-16T09:41:06.160Z,690.00
2024-02-16T09:42:06.321Z,689.00
2024-02-16T09:43:06.182Z,690.00
2024-02-16T09:44:06.133Z,687.00
2024-02-16T09:45:06.147Z,696.00
2024-02-16T09:46:06.153Z,688.00
2024-02-16T09:47:06.122Z,692.00
2024-02-16T09:49:06.657Z,695.00
2024-02-16T09:50:06.451Z,694.00
2024-02-16T09:51:06.368Z,689.00
2024-02-16T09:52:06.169Z,696.00
2024-02-16T09:53:06.147Z,696.00
2024-02-16T09:54:06.263Z,688.00
2024-02-16T09:55:06.153Z,692.00
2024-02-16T09:56:06.142Z,692.00
2024-02-16T09:57:06.195Z,684.00
2024-02-16T09:58:06.197Z,688.00
2024-02-16T09:59:08.441Z,688.00
2024-02-16T10:00:06.185Z,689.00
2024-02-16T10:01:06.240Z,689.00
2024-02-16T10:02:06.161Z,689.00
2024-02-16T10:03:06.256Z,685.00
2024-02-16T10:04:06.175Z,687.00
2024-02-16T10:05:06.186Z,695.00
2024-02-16T10:06:06.419Z,685.00
2024-02-16T10:07:10.297Z,693.00
2024-02-16T10:08:07.193Z,684.00
2024-02-16T10:09:06.201Z,684.00
2024-02-16T10:10:06.230Z,684.00
2024-02-16T10:11:06.282Z,679.00
2024-02-16T10:12:06.287Z,692.00
2024-02-16T10:13:06.212Z,683.00
2024-02-16T10:14:06.195Z,688.00
2024-02-16T10:15:06.227Z,684.00
2024-02-16T10:16:06.218Z,683.00
2024-02-16T10:17:06.197Z,675.00
2024-02-16T10:18:06.345Z,673.00
2024-02-16T10:19:06.355Z,671.00
2024-02-16T10:20:06.250Z,665.00
2024-02-16T10:21:06.243Z,676.00
2024-02-16T10:22:06.200Z,670.00
2024-02-16T10:23:06.220Z,670.00
2024-02-16T10:24:06.213Z,677.00
2024-02-16T10:25:06.224Z,670.00
2024-02-16T10:26:06.235Z,665.00
2024-02-16T10:27:06.246Z,675.00
2024-02-16T10:28:06.222Z,674.00
2024-02-16T10:29:06.204Z,669.00
2024-02-16T10:30:06.256Z,666.00
2024-02-16T10:31:06.223Z,671.00
2024-02-16T10:32:06.231Z,664.00
2024-02-16T10:33:06.329Z,667.00
2024-02-16T10:34:06.443Z,671.00
2024-02-16T10:35:06.282Z,665.00
2024-02-16T10:36:06.564Z,661.00
2024-02-16T10:37:06.249Z,664.00
2024-02-16T10:38:06.229Z,665.00
2024-02-16T10:39:06.446Z,663.00
2024-02-16T10:40:06.360Z,659.00
2024-02-16T10:41:06.876Z,661.00
2024-02-16T10:42:06.322Z,659.00
2024-02-16T10:43:06.268Z,656.00
2024-02-16T10:44:06.252Z,659.00
2024-02-16T10:45:06.306Z,657.00
2024-02-16T10:46:06.236Z,658.00
2024-02-16T10:47:06.340Z,658.00
2024-02-16T10:48:06.323Z,660.00
2024-02-16T10:49:06.359Z,659.00
2024-02-16T10:50:06.362Z,656.00
2024-02-16T10:51:06.344Z,658.00
2024-02-16T10:52:06.292Z,659.00
2024-02-16T10:53:06.280Z,656.00
2024-02-16T10:54:06.396Z,656.00
2024-02-16T10:55:09.764Z,653.00
2024-02-16T10:56:06.286Z,655.00
2024-02-16T10:57:06.330Z,654.00
2024-02-16T10:58:06.301Z,657.00
2024-02-16T10:59:06.377Z,653.00
2024-02-16T11:00:06.327Z,655.00
2024-02-16T11:01:06.409Z,655.00
2024-02-16T11:02:06.367Z,653.00
2024-02-16T11:03:06.443Z,651.00
2024-02-16T11:04:06.515Z,652.00
2024-02-16T11:05:06.361Z,648.00
2024-02-16T11:06:06.408Z,647.00
2024-02-16T11:07:09.379Z,651.00
2024-02-16T11:08:06.354Z,651.00
2024-02-16T11:09:06.322Z,651.00
2024-02-16T11:10:06.317Z,648.00
2024-02-16T11:11:06.368Z,651.00
2024-02-16T11:12:06.435Z,650.00
2024-02-16T11:13:06.310Z,647.00
2024-02-16T11:14:06.309Z,646.00
2024-02-16T11:15:06.345Z,649.00
2024-02-16T11:16:06.323Z,647.00
2024-02-16T11:17:06.320Z,645.00
2024-02-16T11:18:06.401Z,644.00
2024-02-16T11:19:06.398Z,643.00
2024-02-16T11:20:06.354Z,646.00
2024-02-16T11:21:06.351Z,647.00
2024-02-16T11:22:06.328Z,645.00
2024-02-16T11:23:06.326Z,642.00
2024-02-16T11:24:06.386Z,645.00
2024-02-16T11:25:06.363Z,638.00
2024-02-16T11:26:06.330Z,641.00
2024-02-16T11:27:06.416Z,639.00
2024-02-16T11:28:06.351Z,638.00
2024-02-16T11:29:06.349Z,641.00
2024-02-16T11:30:06.472Z,637.00
2024-02-16T11:31:06.363Z,637.00
2024-02-16T11:32:06.361Z,638.00
2024-02-16T11:33:06.643Z,636.00
2024-02-16T11:34:06.500Z,637.00
2024-02-16T11:35:06.506Z,639.00
2024-02-16T11:36:06.439Z,637.00
2024-02-16T11:37:06.371Z,634.00
2024-02-16T11:38:06.352Z,633.00
2024-02-16T11:39:06.373Z,638.00
2024-02-16T11:40:06.364Z,633.00
2024-02-16T11:41:06.401Z,636.00
2024-02-16T11:42:06.414Z,633.00
2024-02-16T11:43:06.371Z,632.00
2024-02-16T11:44:06.370Z,630.00
2024-02-16T11:45:06.422Z,633.00
2024-02-16T11:46:06.378Z,631.00
2024-02-16T11:47:06.419Z,628.00
2024-02-16T11:48:06.503Z,634.00
2024-02-16T11:49:06.622Z,632.00
2024-02-16T11:50:06.781Z,630.00
2024-02-16T11:51:06.459Z,631.00
2024-02-16T11:52:06.414Z,632.00
2024-02-16T11:53:06.412Z,629.00
2024-02-16T11:54:06.423Z,625.00
2024-02-16T11:55:06.547Z,627.00
2024-02-16T11:56:06.402Z,631.00
2024-02-16T11:57:06.394Z,627.00
2024-02-16T11:58:06.393Z,627.00
2024-02-16T11:59:06.394Z,627.00
2024-02-16T12:00:06.410Z,626.00
2024-02-16T12:01:06.676Z,625.00
2024-02-16T12:02:06.431Z,625.00
2024-02-16T12:03:06.421Z,624.00
2024-02-16T12:04:06.425Z,622.00
2024-02-16T12:05:06.686Z,625.00
2024-02-16T12:06:06.596Z,624.00
2024-02-16T12:07:06.564Z,626.00
2024-02-16T12:08:06.471Z,624.00
2024-02-16T12:09:06.440Z,623.00
2024-02-16T12:10:06.528Z,626.00
2024-02-16T12:11:06.573Z,624.00
2024-02-16T12:12:06.455Z,620.00
2024-02-16T12:13:08.519Z,621.00
2024-02-16T12:14:06.427Z,622.00
2024-02-16T12:15:06.748Z,622.00
2024-02-16T12:16:06.444Z,619.00
2024-02-16T12:17:06.449Z,621.00
2024-02-16T12:18:06.585Z,619.00
2024-02-16T12:19:06.607Z,618.00
2024-02-16T12:20:06.575Z,620.00
2024-02-16T12:21:06.542Z,619.00
2024-02-16T12:22:06.495Z,617.00
2024-02-16T12:23:06.477Z,620.00
2024-02-16T12:24:06.484Z,621.00
2024-02-16T12:25:06.504Z,617.00
2024-02-16T12:26:06.466Z,620.00
2024-02-16T12:27:06.525Z,615.00
2024-02-16T12:28:06.466Z,616.00
2024-02-16T12:29:06.483Z,615.00
2024-02-16T12:30:06.499Z,617.00